Lake Oke North End current weather conditions

sailwx.info

Wind from 213 at 5 knots gusting 7

Air temperature 26.6° C
Dewpoint 21.1° C
Water temperature -7999.0° C

Last reported at 2019-Oct-15 19:56 UTC.
Time now 2019-Oct-15 21:01 UTC

Location: N 27°08' W 080°47'.
View on Google Maps.

See reports from other nearby stations

  
Tides and Currents Weather Stations Pressure Air Temp Water Temp Dewpoint Dewpoint Depression Visibility Wind Speed Wind Dir Waves Ship Positions
date/time (UTC)wind fromknots sea level pressurealtimeterstation pressurevisibilityair tempwater tempwave heightnotes
2019-Oct-15 19:56 213 5 gusting 7 26.6-7999.0
2019-Oct-15 17:40 213 5 gusting 7 26.6-7999.0
2019-Oct-15 17:30 213 5 gusting 7 26.6-7999.0
2019-Oct-15 17:15 215 6 gusting 7 26.6-7999.0
2019-Oct-15 17:00 216 5 gusting 7 26.6-7999.0
2019-Oct-15 16:45 220 4 gusting 6 26.6-7999.0
2019-Oct-15 16:30 207 4 gusting 6 26.5-7999.0
2019-Oct-15 12:44 110 6 gusting 7 25.0-7999.0
2019-Oct-15 12:15 110 6 gusting 7 25.0-7999.0
2019-Oct-15 11:45 114 5 gusting 7 25.0-7999.0
2019-Oct-15 11:30 116 5 gusting 6 25.1-7999.0
2019-Oct-15 11:15 120 5 gusting 6 25.0-7999.0
2019-Oct-15 10:45 108 4 gusting 5 24.9-7999.0
2019-Oct-15 10:30 109 5 gusting 6 24.9-7999.0
2019-Oct-15 10:15 107 5 gusting 6 25.0-7999.0
2019-Oct-15 09:45 112 5 gusting 6 25.2-7999.0
2019-Oct-15 09:30 125 5 gusting 6 25.2-7999.0
2019-Oct-15 09:15 124 5 gusting 6 25.2-7999.0
2019-Oct-15 08:45 124 4 gusting 6 25.2-7999.0
2019-Oct-15 08:30 116 4 gusting 4 25.2-7999.0
2019-Oct-15 08:15 112 4 gusting 4 25.2-7999.0
2019-Oct-15 07:45 109 4 gusting 5 25.1-7999.0
2019-Oct-15 07:30 104 4 gusting 5 25.3-7999.0
2019-Oct-15 07:15 106 4 gusting 5 25.4-7999.0
2019-Oct-15 06:45 119 5 gusting 6 25.6-7999.0
2019-Oct-15 06:30 119 6 gusting 8 25.7-7999.0
2019-Oct-15 06:15 131 6 gusting 7 25.8-7999.0
2019-Oct-15 05:45 135 6 gusting 7 25.7-7999.0
2019-Oct-15 05:30 147 6 gusting 7 25.7-7999.0
2019-Oct-15 05:15 146 7 gusting 8 25.7-7999.0
2019-Oct-15 04:45 123 7 gusting 7 25.6-7999.0
2019-Oct-15 04:30 114 7 gusting 8 25.6-7999.0
2019-Oct-15 04:15 119 7 gusting 8 25.6-7999.0
2019-Oct-15 03:45 109 7 gusting 8 25.6-7999.0
2019-Oct-15 03:30 103 7 gusting 8 25.7-7999.0
2019-Oct-15 03:15 111 8 gusting 9 25.8-7999.0
2019-Oct-15 02:45 113 8 gusting 10 25.9-7999.0
2019-Oct-15 02:30 114 9 gusting 10 25.9-7999.0
2019-Oct-15 02:15 116 10 gusting 11 26.0-7999.0
2019-Oct-15 01:45 114 10 gusting 12 25.9-7999.0
2019-Oct-15 01:30 113 10 gusting 12 26.0-7999.0
2019-Oct-15 01:15 109 11 gusting 12 26.0-7999.0
2019-Oct-15 00:45 102 10 gusting 13 26.2-7999.0
2019-Oct-15 00:30 102 11 gusting 13 26.3-7999.0
2019-Oct-15 00:15 102 11 gusting 14 26.4-7999.0
2019-Oct-14 23:45 099 12 gusting 13 26.9-7999.0
2019-Oct-14 23:30 099 12 gusting 14 27.1-7999.0
2019-Oct-14 23:15 100 11 gusting 13 27.4-7999.0
2019-Oct-14 22:45 096 13 gusting 15 27.7-7999.0
2019-Oct-14 22:30 094 14 gusting 16 27.8-7999.0
2019-Oct-14 22:15 091 14 gusting 15 28.2-7999.0
2019-Oct-14 21:45 092 13 gusting 15 29.2-7999.0
2019-Oct-14 21:30 093 10 gusting 12 29.7-7999.0
2019-Oct-14 21:15 116 4 gusting 7 30.1-7999.0
2019-Oct-14 20:45 116 2 gusting 4 30.2-7999.0
2019-Oct-14 20:30 174 1 gusting 2 30.2-7999.0
2019-Oct-14 20:15 214 1 gusting 3 30.3-7999.0
2019-Oct-14 19:45 205 1 gusting 3 29.6-7999.0
2019-Oct-14 19:30 176 2 gusting 4 29.5-7999.0
2019-Oct-14 19:15 211 1 gusting 2 29.4-7999.0
2019-Oct-14 18:45 198 1 gusting 2 29.4-7999.0
2019-Oct-14 18:30 194 1 gusting 2 29.1-7999.0
2019-Oct-14 18:15 212 2 gusting 3 28.7-7999.0
2019-Oct-14 17:45 217 2 gusting 3 28.3-7999.0
2019-Oct-14 17:30 209 3 gusting 4 28.0-7999.0
2019-Oct-14 17:15 221 3 gusting 5 27.8-7999.0
2019-Oct-14 16:45 224 4 gusting 5 27.5-7999.0
2019-Oct-14 16:30 226 4 gusting 5 27.5-7999.0
2019-Oct-14 16:15 208 3 gusting 5 27.4-7999.0
2019-Oct-14 15:45 193 3 gusting 4 27.3-7999.0
2019-Oct-14 15:30 169 3 gusting 4 27.3-7999.0
2019-Oct-14 15:15 137 2 gusting 3 27.1-7999.0
2019-Oct-14 14:45 134 5 gusting 6 26.7-7999.0
2019-Oct-14 14:30 134 5 gusting 6 26.7-7999.0
2019-Oct-14 14:15 115 5 gusting 6 26.7-7999.0
2019-Oct-14 13:45 096 5 gusting 6 26.5-7999.0
2019-Oct-14 13:30 085 4 gusting 5 25.9-7999.0
2019-Oct-14 13:15 073 4 gusting 5 25.5-7999.0
2019-Oct-14 12:45 075 4 gusting 5 25.1-7999.0
2019-Oct-14 12:30 075 5 gusting 5 25.0-7999.0
2019-Oct-14 12:15 068 5 gusting 5 24.9-7999.0
2019-Oct-14 12:00 067 5 gusting 6 24.8-7999.0
2019-Oct-14 11:45 067 5 gusting 6 24.6-7999.0
2019-Oct-14 11:30 066 5 gusting 6 24.6-7999.0
2019-Oct-14 11:15 062 5 gusting 5 24.6-7999.0
2019-Oct-14 11:00 057 4 gusting 5 24.5-7999.0
2019-Oct-14 10:45 044 4 gusting 5 24.6-7999.0
2019-Oct-14 10:30 044 4 gusting 5 25.1-7999.0
2019-Oct-14 10:15 050 3 gusting 4 25.2-7999.0
2019-Oct-14 09:45 095 3 gusting 4 25.1-7999.0
2019-Oct-14 09:30 087 4 gusting 4 24.9-7999.0
2019-Oct-14 09:15 065 3 gusting 4 25.0-7999.0
2019-Oct-14 08:45 059 3 gusting 4 25.3-7999.0
2019-Oct-14 08:30 054 3 gusting 4 25.3-7999.0
2019-Oct-14 08:15 052 3 gusting 4 25.2-7999.0
2019-Oct-14 07:45 073 4 gusting 4 25.4-7999.0
2019-Oct-14 07:30 099 4 gusting 5 25.6-7999.0
2019-Oct-14 07:15 099 4 gusting 5 25.4-7999.0
2019-Oct-14 06:45 100 5 gusting 6 25.1-7999.0
2019-Oct-14 06:30 092 5 gusting 6 25.2-7999.0
2019-Oct-14 06:15 078 5 gusting 6 25.2-7999.0
2019-Oct-14 05:45 060 5 gusting 5 25.3-7999.0
2019-Oct-14 05:30 066 5 gusting 6 25.3-7999.0
2019-Oct-14 05:15 067 4 gusting 5 25.4-7999.0
2019-Oct-14 04:45 069 4 gusting 5 25.3-7999.0
2019-Oct-14 04:30 088 3 gusting 4 25.5-7999.0
2019-Oct-14 04:15 109 3 gusting 4 25.6-7999.0
2019-Oct-14 03:45 116 3 gusting 4 25.5-7999.0
2019-Oct-14 03:30 129 4 gusting 5 25.5-7999.0
2019-Oct-14 03:15 130 5 gusting 6 25.5-7999.0
2019-Oct-14 02:45 111 7 gusting 8 25.6-7999.0
2019-Oct-14 02:30 104 7 gusting 8 25.7-7999.0
2019-Oct-14 02:15 095 7 gusting 9 25.7-7999.0
2019-Oct-14 01:45 086 8 gusting 9 25.9-7999.0
2019-Oct-14 01:30 092 9 gusting 10 25.9-7999.0
2019-Oct-14 01:15 096 9 gusting 10 25.9-7999.0
2019-Oct-14 00:45 104 9 gusting 11 26.1-7999.0
2019-Oct-14 00:30 099 9 gusting 11 26.1-7999.0
2019-Oct-14 00:15 095 9 gusting 11 26.2-7999.0
2019-Oct-13 23:45 099 11 gusting 12 26.5-7999.0
2019-Oct-13 23:30 097 10 gusting 12 26.7-7999.0
2019-Oct-13 23:15 096 9 gusting 11 26.8-7999.0
2019-Oct-13 22:45 103 10 gusting 11 27.1-7999.0
2019-Oct-13 22:30 109 11 gusting 13 27.2-7999.0
2019-Oct-13 22:15 100 11 gusting 13 27.4-7999.0
2019-Oct-13 21:45 097 11 gusting 12 27.6-7999.0
2019-Oct-13 21:30 096 10 gusting 12 27.6-7999.0
2019-Oct-13 21:15 101 10 gusting 12 27.6-7999.0